Time;durP1;ratioP1;P1;durP2;ratioP2;P2;SDS_P1;SDS_P2;PMS_P1;PMS_P2;Temp;Humidity;BMP_temperature;BMP_pressure;BME280_temperature;BME280_humidity;BME280_pressure;Samples;Min_cycle;Max_cycle;Signal;HPM_P1;HPM_P2
2022/11/29 00:01:59;;;;;;;22.83;20.92;;;4.70;99.90;;;;;;4231138;28;20051;-89
2022/11/29 00:04:20;;;;;;;43.58;18.95;;;4.70;99.90;;;;;;4234894;28;20235;-89
2022/11/29 00:06:39;;;;;;;45.83;19.45;;;4.70;99.90;;;;;;4222238;28;20051;-89
2022/11/29 00:09:05;;;;;;;65.22;19.52;;;4.70;99.90;;;;;;4234712;28;20333;-89
2022/11/29 00:14:08;;;;;;;22.38;20.13;;;4.70;99.90;;;;;;4232954;28;20097;-89
2022/11/29 00:16:29;;;;;;;24.63;22.13;;;4.70;99.90;;;;;;4235787;28;20081;-89
2022/11/29 00:18:49;;;;;;;21.60;19.70;;;4.70;99.90;;;;;;4223877;28;20239;-89
2022/11/29 00:21:09;;;;;;;32.78;23.42;;;4.70;99.90;;;;;;4230835;28;20042;-89
2022/11/29 00:23:28;;;;;;;27.00;23.25;;;4.70;99.90;;;;;;4218401;28;20393;-89
2022/11/29 00:25:48;;;;;;;46.90;22.98;;;4.70;99.90;;;;;;4231938;28;20047;-89
2022/11/29 00:28:08;;;;;;;77.93;24.92;;;4.70;99.90;;;;;;4229810;28;20258;-90
2022/11/29 00:30:27;;;;;;;113.35;26.83;;;4.70;99.90;;;;;;4231291;28;20059;-89
2022/11/29 00:32:47;;;;;;;199.48;32.38;;;4.70;99.90;;;;;;4218340;28;20105;-89
2022/11/29 00:35:08;;;;;;;58.35;24.02;;;4.60;99.90;;;;;;4232222;28;20235;-89
2022/11/29 00:37:30;;;;;;;23.20;20.70;;;4.60;99.90;;;;;;4219618;28;20039;-89
2022/11/29 00:39:50;;;;;;;22.98;19.35;;;4.60;99.90;;;;;;4230998;28;20284;-89
2022/11/29 00:42:10;;;;;;;20.85;18.70;;;4.60;99.90;;;;;;4214319;28;20067;-89
2022/11/29 00:44:29;;;;;;;86.93;22.85;;;4.70;99.90;;;;;;4231996;28;20097;-89
2022/11/29 00:46:49;;;;;;;19.45;17.77;;;4.60;99.90;;;;;;4229292;28;20081;-89
2022/11/29 00:49:09;;;;;;;18.67;16.77;;;4.60;99.90;;;;;;4214344;28;20052;-89
2022/11/29 00:51:29;;;;;;;16.98;15.13;;;4.60;99.90;;;;;;4232515;28;20055;-89
2022/11/29 00:53:49;;;;;;;14.90;13.88;;;4.70;99.90;;;;;;4228795;28;20095;-89
2022/11/29 00:56:09;;;;;;;17.23;15.65;;;4.70;99.90;;;;;;4232260;28;20119;-89
2022/11/29 00:58:29;;;;;;;15.98;14.88;;;4.60;99.90;;;;;;4218840;28;20069;-89
2022/11/29 01:00:49;;;;;;;20.42;18.52;;;4.60;99.90;;;;;;4216297;28;20044;-89
2022/11/29 01:03:09;;;;;;;23.48;21.02;;;4.60;99.90;;;;;;4233416;28;20043;-89
2022/11/29 01:05:30;;;;;;;23.33;21.00;;;4.60;99.90;;;;;;4230340;28;20055;-89
2022/11/29 01:07:50;;;;;;;24.45;20.50;;;4.50;99.90;;;;;;4229451;28;20047;-89
2022/11/29 01:10:09;;;;;;;24.35;21.85;;;4.50;99.90;;;;;;4232140;28;20070;-89
2022/11/29 01:12:29;;;;;;;23.77;20.55;;;4.50;99.90;;;;;;4231408;28;20047;-89
2022/11/29 01:14:49;;;;;;;17.77;16.27;;;4.50;99.90;;;;;;4219676;28;20055;-89
2022/11/29 01:17:09;;;;;;;18.80;17.20;;;4.50;99.90;;;;;;4219887;28;20046;-89
2022/11/29 01:19:29;;;;;;;19.58;17.52;;;4.50;99.90;;;;;;4232844;28;20085;-89
2022/11/29 01:21:48;;;;;;;18.77;17.08;;;4.50;99.90;;;;;;4231868;28;20046;-88
2022/11/29 01:24:08;;;;;;;18.88;16.77;;;4.50;99.90;;;;;;4229173;28;20093;-89
2022/11/29 01:26:30;;;;;;;17.27;15.80;;;4.50;99.90;;;;;;4230008;28;20067;-89
2022/11/29 01:28:52;;;;;;;17.23;15.80;;;4.50;99.90;;;;;;4216174;28;20137;-89
2022/11/29 01:31:15;;;;;;;15.70;14.70;;;4.60;99.90;;;;;;4217810;28;20086;-89
2022/11/29 01:33:36;;;;;;;16.60;15.30;;;4.60;99.90;;;;;;4230833;28;20066;-89
2022/11/29 01:35:56;;;;;;;19.50;17.60;;;4.70;99.90;;;;;;4228823;28;20058;-89
2022/11/29 01:38:16;;;;;;;19.25;17.65;;;4.70;99.90;;;;;;4217693;28;20036;-89
2022/11/29 01:40:36;;;;;;;18.58;16.95;;;4.70;99.90;;;;;;4223488;28;20116;-89
2022/11/29 01:42:56;;;;;;;18.40;16.85;;;4.70;99.90;;;;;;4232345;28;20112;-89
2022/11/29 01:45:25;;;;;;;18.70;17.20;;;4.70;99.90;;;;;;4229647;28;20066;-89
2022/11/29 01:47:46;;;;;;;19.15;17.33;;;4.70;99.90;;;;;;4231050;28;20066;-89
2022/11/29 01:50:07;;;;;;;26.50;23.10;;;4.70;99.90;;;;;;4230622;28;20054;-89
2022/11/29 01:52:30;;;;;;;28.25;22.55;;;4.70;99.90;;;;;;4232160;28;20400;-89
2022/11/29 01:54:56;;;;;;;73.20;37.45;;;4.70;99.90;;;;;;4233523;28;20280;-89
2022/11/29 01:57:17;;;;;;;130.15;51.90;;;4.70;99.90;;;;;;4233032;28;20219;-89
2022/11/29 01:59:42;;;;;;;153.27;40.65;;;4.60;99.90;;;;;;4230853;28;20538;-89
2022/11/29 02:02:12;;;;;;;239.13;29.88;;;4.60;99.90;;;;;;4228008;28;20101;-87
2022/11/29 02:04:36;;;;;;;345.35;33.28;;;4.50;99.90;;;;;;4213162;28;20051;-87
2022/11/29 02:06:56;;;;;;;279.40;30.70;;;4.50;99.90;;;;;;4219247;28;20235;-87
2022/11/29 02:09:21;;;;;;;308.73;30.63;;;4.50;99.90;;;;;;4217954;28;20062;-86
2022/11/29 02:12:09;;;;;;;365.80;32.58;;;4.50;99.90;;;;;;4231043;28;20051;-86
2022/11/29 02:14:54;;;;;;;306.95;29.73;;;4.50;99.90;;;;;;4215744;28;20078;-87
2022/11/29 02:17:20;;;;;;;355.55;29.58;;;4.40;99.90;;;;;;4230301;28;20400;-87
2022/11/29 02:19:49;;;;;;;260.40;27.30;;;4.40;99.90;;;;;;4230929;28;20100;-87
2022/11/29 02:22:25;;;;;;;362.70;27.73;;;4.40;99.90;;;;;;4214239;28;20255;-87
2022/11/29 02:25:03;;;;;;;130.98;20.63;;;4.40;99.90;;;;;;4231152;28;20050;-87
2022/11/29 02:27:44;;;;;;;104.90;19.42;;;4.40;99.90;;;;;;4229151;28;20224;-86
2022/11/29 02:30:52;;;;;;;159.98;21.13;;;4.40;99.90;;;;;;4217435;28;20421;-87
2022/11/29 02:33:44;;;;;;;64.95;17.35;;;4.40;99.90;;;;;;4226541;28;20046;-87
2022/11/29 02:36:17;;;;;;;20.65;15.50;;;4.40;99.90;;;;;;4211387;28;20292;-86
2022/11/29 02:39:01;;;;;;;18.38;16.40;;;4.40;99.90;;;;;;4228334;28;20259;-87
2022/11/29 02:41:57;;;;;;;17.92;16.55;;;4.40;99.90;;;;;;4229934;28;20050;-87
2022/11/29 02:44:47;;;;;;;20.50;18.48;;;4.40;99.90;;;;;;4230791;28;20388;-87
2022/11/29 02:47:15;;;;;;;18.63;17.02;;;4.40;99.90;;;;;;4231448;28;20327;-86
2022/11/29 02:49:45;;;;;;;20.17;18.20;;;4.50;99.90;;;;;;4231086;28;20044;-87
2022/11/29 02:52:45;;;;;;;25.20;20.17;;;4.50;99.90;;;;;;4227632;28;20066;-87
2022/11/29 02:55:32;;;;;;;22.77;20.50;;;4.50;99.90;;;;;;4230745;28;20046;-87
2022/11/29 02:58:07;;;;;;;22.33;20.08;;;4.40;99.90;;;;;;4219224;28;20039;-87
2022/11/29 03:00:27;;;;;;;23.50;20.95;;;4.50;99.90;;;;;;4232713;28;20361;-87
2022/11/29 03:02:50;;;;;;;24.98;20.27;;;4.40;99.90;;;;;;4213623;28;20074;-87
2022/11/29 03:05:55;;;;;;;19.63;17.92;;;4.40;99.90;;;;;;4213918;28;20048;-87
2022/11/29 03:08:36;;;;;;;18.98;17.27;;;4.40;99.90;;;;;;4214886;28;20081;-87
2022/11/29 03:11:08;;;;;;;18.75;16.80;;;4.50;99.90;;;;;;4217162;28;20050;-86
2022/11/29 03:13:47;;;;;;;14.70;13.90;;;4.50;99.90;;;;;;4214484;28;20035;-87
2022/11/29 03:16:22;;;;;;;13.65;12.88;;;4.50;99.90;;;;;;4228486;28;20082;-87
2022/11/29 03:19:05;;;;;;;13.10;12.40;;;4.50;99.90;;;;;;4230549;28;20063;-87
2022/11/29 03:21:38;;;;;;;13.18;12.45;;;4.50;99.90;;;;;;4186853;28;20102;-87
2022/11/29 03:24:03;;;;;;;12.77;12.07;;;4.50;99.90;;;;;;4228277;28;20091;-86
2022/11/29 03:26:31;;;;;;;12.65;11.95;;;4.50;99.90;;;;;;4229875;28;20333;-87
2022/11/29 03:29:08;;;;;;;13.32;12.35;;;4.40;99.90;;;;;;4216692;28;20048;-87
2022/11/29 03:31:41;;;;;;;14.02;13.10;;;4.40;99.90;;;;;;4229605;28;20039;-87
2022/11/29 03:34:17;;;;;;;12.90;12.10;;;4.40;99.90;;;;;;4222279;28;20083;-87
2022/11/29 03:40:35;;;;;;;12.65;11.82;;;4.50;99.90;;;;;;4235493;28;20078;-86
2022/11/29 03:43:09;;;;;;;13.65;12.63;;;4.40;99.90;;;;;;4216091;28;20408;-86
2022/11/29 03:45:41;;;;;;;15.15;14.07;;;4.40;99.90;;;;;;4217785;28;20074;-86
2022/11/29 03:48:08;;;;;;;27.90;16.08;;;4.40;99.90;;;;;;4222458;28;20052;-86
2022/11/29 03:50:37;;;;;;;45.28;21.45;;;4.40;99.90;;;;;;4215250;28;20105;-87
2022/11/29 03:53:22;;;;;;;173.35;28.80;;;4.40;99.90;;;;;;4232049;28;20110;-86
2022/11/29 03:56:20;;;;;;;256.67;30.02;;;4.40;99.90;;;;;;4222835;28;20055;-86
2022/11/29 03:59:07;;;;;;;264.08;30.10;;;4.30;99.90;;;;;;4227634;28;20135;-86
2022/11/29 04:01:55;;;;;;;192.45;24.00;;;4.30;99.90;;;;;;4225484;28;20369;-86
2022/11/29 04:04:36;;;;;;;129.00;22.20;;;4.30;99.90;;;;;;4220221;28;20081;-87
2022/11/29 04:07:47;;;;;;;235.43;26.17;;;4.30;99.90;;;;;;4212983;28;20186;-86
2022/11/29 04:10:47;;;;;;;216.80;25.02;;;4.20;99.90;;;;;;4189481;28;20054;-86
2022/11/29 04:13:52;;;;;;;298.50;28.13;;;4.30;99.90;;;;;;4200898;28;20063;-86
2022/11/29 04:16:49;;;;;;;321.27;30.88;;;4.20;99.90;;;;;;4215441;28;20074;-86
2022/11/29 04:19:30;;;;;;;313.40;31.38;;;4.20;99.90;;;;;;4227068;28;20043;-86
2022/11/29 04:21:56;;;;;;;241.23;26.85;;;4.20;99.90;;;;;;4224986;28;20075;-87
2022/11/29 04:24:40;;;;;;;232.82;26.27;;;4.20;99.90;;;;;;4223155;28;20043;-87
2022/11/29 04:27:25;;;;;;;115.45;23.58;;;4.20;99.90;;;;;;4227675;28;20093;-87
2022/11/29 04:30:24;;;;;;;125.78;21.60;;;4.20;99.90;;;;;;4216339;28;20071;-87
2022/11/29 04:32:47;;;;;;;62.10;19.48;;;4.20;99.90;;;;;;4173841;28;20048;-87
2022/11/29 04:35:25;;;;;;;198.60;22.30;;;4.20;99.90;;;;;;4213555;28;20291;-87
2022/11/29 04:38:01;;;;;;;16.75;15.63;;;4.20;99.90;;;;;;4228075;28;20120;-87
2022/11/29 04:40:47;;;;;;;47.80;16.60;;;4.30;99.90;;;;;;4231765;28;20062;-87
2022/11/29 04:43:32;;;;;;;16.33;14.52;;;4.30;99.90;;;;;;4187282;28;20118;-87
2022/11/29 04:45:58;;;;;;;25.67;16.35;;;4.30;99.90;;;;;;4223821;28;20055;-87
2022/11/29 04:48:20;;;;;;;27.75;17.45;;;4.30;99.90;;;;;;4231402;28;20047;-87
2022/11/29 04:50:43;;;;;;;31.13;16.65;;;4.30;99.90;;;;;;4221112;28;20104;-87
2022/11/29 04:53:31;;;;;;;21.23;14.20;;;4.30;99.90;;;;;;4220739;28;20043;-87
2022/11/29 04:56:05;;;;;;;9.40;9.07;;;4.30;99.90;;;;;;4232298;28;20043;-87
2022/11/29 04:58:39;;;;;;;13.63;12.27;;;4.30;99.90;;;;;;4229143;28;20075;-87
2022/11/29 05:01:37;;;;;;;26.25;14.90;;;4.30;99.90;;;;;;4215988;28;20077;-87
2022/11/29 05:04:03;;;;;;;24.00;17.50;;;4.20;99.90;;;;;;4226189;28;20046;-87
2022/11/29 05:06:38;;;;;;;10.23;9.45;;;4.30;99.90;;;;;;4216159;28;20115;-87
2022/11/29 05:09:09;;;;;;;10.07;9.27;;;4.30;99.90;;;;;;4231710;28;20071;-87
2022/11/29 05:11:35;;;;;;;9.80;9.38;;;4.30;99.90;;;;;;4224637;28;20134;-87
2022/11/29 05:14:32;;;;;;;9.52;8.80;;;4.30;99.90;;;;;;4218021;28;20039;-87
2022/11/29 05:17:13;;;;;;;11.30;10.43;;;4.30;99.90;;;;;;4224609;28;20409;-87
2022/11/29 05:19:40;;;;;;;11.82;9.43;;;4.30;99.90;;;;;;4229632;28;20469;-87
2022/11/29 05:22:25;;;;;;;33.80;14.50;;;4.30;99.90;;;;;;4234135;28;20235;-87
2022/11/29 05:24:54;;;;;;;235.38;23.40;;;4.30;99.90;;;;;;4229399;28;20232;-87
2022/11/29 05:27:33;;;;;;;303.13;28.55;;;4.20;99.90;;;;;;4232034;28;20129;-87
2022/11/29 05:30:06;;;;;;;178.82;21.60;;;4.20;99.90;;;;;;4217138;28;20126;-87
2022/11/29 05:32:33;;;;;;;355.13;26.02;;;4.20;99.90;;;;;;4231333;28;20047;-87
2022/11/29 05:35:27;;;;;;;289.67;25.48;;;4.10;99.90;;;;;;4232856;28;20058;-87
2022/11/29 05:38:01;;;;;;;327.10;27.25;;;4.10;99.90;;;;;;4229791;28;20042;-87
2022/11/29 05:40:20;;;;;;;376.38;29.42;;;4.10;99.90;;;;;;4230737;28;20085;-87
2022/11/29 05:43:14;;;;;;;407.35;30.88;;;4.10;99.90;;;;;;4220523;28;20043;-87
2022/11/29 05:45:56;;;;;;;321.90;25.42;;;4.10;99.90;;;;;;4230275;28;20333;-87
2022/11/29 05:48:27;;;;;;;390.00;28.58;;;4.00;99.90;;;;;;4234538;28;20116;-87
2022/11/29 05:50:58;;;;;;;299.40;25.70;;;4.00;99.90;;;;;;4216398;28;20063;-87
2022/11/29 05:53:24;;;;;;;284.50;24.95;;;4.10;99.90;;;;;;4230517;28;20062;-87
2022/11/29 05:56:03;;;;;;;352.00;29.48;;;4.00;99.90;;;;;;4231305;28;20051;-87
2022/11/29 05:58:51;;;;;;;413.55;36.30;;;4.00;99.90;;;;;;4230137;28;20041;-86
2022/11/29 06:01:17;;;;;;;409.73;33.60;;;4.00;99.90;;;;;;4212876;28;20088;-87
2022/11/29 06:04:03;;;;;;;438.67;68.60;;;4.00;99.90;;;;;;4226352;28;20047;-87
2022/11/29 06:06:44;;;;;;;297.27;32.08;;;4.00;99.90;;;;;;4228350;28;20050;-87
2022/11/29 06:09:05;;;;;;;259.98;25.15;;;4.00;99.90;;;;;;4216837;28;20082;-86
2022/11/29 06:11:36;;;;;;;59.88;16.95;;;4.00;99.90;;;;;;4216597;28;20246;-87
2022/11/29 06:14:04;;;;;;;25.73;14.77;;;4.00;99.90;;;;;;4229493;28;20103;-87
2022/11/29 06:16:55;;;;;;;22.17;17.00;;;4.10;99.90;;;;;;4227886;28;20047;-87
2022/11/29 06:19:38;;;;;;;9.30;8.90;;;4.10;99.90;;;;;;4227736;28;20085;-87
2022/11/29 06:22:39;;;;;;;8.55;8.07;;;4.10;99.90;;;;;;4230212;28;20066;-88
2022/11/29 06:25:00;;;;;;;8.82;8.52;;;4.10;99.90;;;;;;4156443;28;20049;-87
2022/11/29 06:27:21;;;;;;;9.45;9.15;;;4.10;99.90;;;;;;4155220;28;20149;-88
2022/11/29 06:29:49;;;;;;;7.63;7.43;;;4.10;99.90;;;;;;4170672;28;20083;-88
2022/11/29 06:32:49;;;;;;;7.38;6.82;;;4.10;99.90;;;;;;4151599;28;20049;-87
2022/11/29 06:35:27;;;;;;;5.45;5.35;;;4.10;99.90;;;;;;4154148;28;20049;-85
2022/11/29 06:37:53;;;;;;;4.35;4.20;;;4.10;99.90;;;;;;4167197;28;20084;-85
2022/11/29 06:40:15;;;;;;;5.63;5.43;;;4.10;99.90;;;;;;4166506;28;20044;-85
2022/11/29 06:42:35;;;;;;;5.72;5.55;;;4.10;99.90;;;;;;4169313;28;20072;-84
2022/11/29 06:44:55;;;;;;;5.85;5.75;;;4.10;99.90;;;;;;4169075;28;20326;-85
2022/11/29 06:47:27;;;;;;;6.25;5.95;;;4.20;99.90;;;;;;4166862;28;20053;-85
2022/11/29 06:49:59;;;;;;;8.43;8.10;;;4.20;99.90;;;;;;4163969;28;20045;-84
2022/11/29 06:52:44;;;;;;;10.57;10.18;;;4.20;99.90;;;;;;4166144;28;20053;-84
2022/11/29 06:55:11;;;;;;;8.63;8.18;;;4.20;99.90;;;;;;4165800;28;20132;-85
2022/11/29 06:57:41;;;;;;;8.77;7.80;;;4.20;99.90;;;;;;4164296;28;20196;-84
2022/11/29 07:00:19;;;;;;;13.75;12.85;;;4.20;99.90;;;;;;4212512;28;20348;-84
2022/11/29 07:03:23;;;;;;;14.85;14.10;;;4.20;99.90;;;;;;4210766;28;20074;-85
2022/11/29 07:05:45;;;;;;;;;;;4.20;99.90;;;;;;4165835;28;20061;-84
2022/11/29 07:08:19;;;;;;;11.18;10.77;;;4.20;99.90;;;;;;4162400;28;19940;-84
2022/11/29 07:10:41;;;;;;;11.30;10.70;;;4.20;99.90;;;;;;4152519;28;20081;-84
2022/11/29 07:13:01;;;;;;;11.90;11.48;;;4.20;99.90;;;;;;4163214;28;20040;-85
2022/11/29 07:15:22;;;;;;;14.45;13.43;;;4.10;99.90;;;;;;4160256;28;20268;-84
2022/11/29 07:17:48;;;;;;;7.50;7.35;;;4.20;99.90;;;;;;4166032;28;20118;-84
2022/11/29 07:20:31;;;;;;;13.48;12.43;;;4.10;99.90;;;;;;4164492;28;20045;-85
2022/11/29 07:23:13;;;;;;;6.65;6.43;;;4.20;99.90;;;;;;4152961;28;20077;-85
2022/11/29 07:25:50;;;;;;;8.45;8.23;;;4.20;99.90;;;;;;4165641;28;20109;-85
2022/11/29 07:28:47;;;;;;;9.05;8.57;;;4.20;99.90;;;;;;4150067;28;20173;-84
2022/11/29 07:31:26;;;;;;;9.20;8.73;;;4.20;99.90;;;;;;4162423;28;20397;-84
2022/11/29 07:33:49;;;;;;;15.77;14.30;;;4.20;99.90;;;;;;4162432;28;20048;-85
2022/11/29 07:36:27;;;;;;;14.38;13.52;;;4.30;99.90;;;;;;4164496;28;20157;-84
2022/11/29 07:39:14;;;;;;;13.98;13.23;;;4.30;99.90;;;;;;4155795;28;20088;-85
2022/11/29 07:41:47;;;;;;;7.95;7.75;;;4.40;99.90;;;;;;4228982;28;20042;-85
2022/11/29 07:44:34;;;;;;;12.25;11.43;;;4.40;99.90;;;;;;4229444;28;20063;-85
2022/11/29 07:46:54;;;;;;;6.65;6.45;;;4.50;99.90;;;;;;4229601;28;20084;-84
2022/11/29 07:49:14;;;;;;;7.32;7.13;;;4.50;99.90;;;;;;4218271;28;20067;-84
2022/11/29 07:51:34;;;;;;;15.85;14.85;;;4.50;99.90;;;;;;4230702;28;20055;-85
2022/11/29 07:53:54;;;;;;;47.13;42.20;;;4.50;99.90;;;;;;4233590;28;20035;-85
2022/11/29 07:56:15;;;;;;;14.00;13.23;;;4.60;99.90;;;;;;4217285;28;20106;-85
2022/11/29 07:58:35;;;;;;;6.47;6.38;;;4.60;99.90;;;;;;4231863;28;20055;-85
2022/11/29 08:00:55;;;;;;;7.50;7.20;;;4.70;99.90;;;;;;4231623;28;20051;-85
2022/11/29 08:03:15;;;;;;;10.77;10.25;;;4.70;99.90;;;;;;4215248;28;20048;-84
2022/11/29 08:05:37;;;;;;;8.45;8.15;;;4.70;99.90;;;;;;4229103;28;20369;-84
2022/11/29 08:07:58;;;;;;;10.57;10.10;;;4.70;99.90;;;;;;4218200;28;20382;-84
2022/11/29 08:10:18;;;;;;;32.50;29.52;;;4.80;99.90;;;;;;4230150;28;20046;-84
2022/11/29 08:12:45;;;;;;;13.68;12.88;;;4.80;99.90;;;;;;4229120;28;20074;-84
2022/11/29 08:15:06;;;;;;;11.63;11.13;;;4.80;99.90;;;;;;4223366;28;20035;-84
2022/11/29 08:17:25;;;;;;;9.05;8.85;;;4.80;99.90;;;;;;4234052;28;20038;-84
2022/11/29 08:19:45;;;;;;;5.75;5.65;;;4.90;99.90;;;;;;4233839;28;20440;-84
2022/11/29 08:22:05;;;;;;;6.80;6.70;;;4.90;99.90;;;;;;4218971;28;20047;-84
2022/11/29 08:24:25;;;;;;;7.15;7.05;;;4.90;99.90;;;;;;4218642;28;20063;-84
2022/11/29 08:26:45;;;;;;;6.53;6.13;;;4.90;99.90;;;;;;4218600;28;20047;-81
2022/11/29 08:29:05;;;;;;;6.15;6.05;;;4.90;99.90;;;;;;4233297;28;20039;-82
2022/11/29 08:31:25;;;;;;;6.80;6.55;;;5.00;99.90;;;;;;4231127;28;20058;-82
2022/11/29 08:33:45;;;;;;;6.10;5.93;;;5.00;99.90;;;;;;4234023;28;20074;-82
2022/11/29 08:36:07;;;;;;;8.00;7.80;;;5.10;99.90;;;;;;4231146;28;20356;-82
2022/11/29 08:38:26;;;;;;;9.32;8.80;;;5.10;99.90;;;;;;4216923;28;20090;-82
2022/11/29 08:40:46;;;;;;;11.10;10.57;;;5.20;99.90;;;;;;4233792;28;20051;-81
2022/11/29 08:43:06;;;;;;;13.52;12.38;;;5.30;99.90;;;;;;4227558;28;20265;-82
2022/11/29 08:45:26;;;;;;;15.30;13.82;;;5.30;99.90;;;;;;4231697;28;20055;-82
2022/11/29 08:47:46;;;;;;;18.60;15.18;;;5.40;99.90;;;;;;4217231;28;20240;-82
2022/11/29 08:50:11;;;;;;;15.15;13.98;;;5.40;99.90;;;;;;4234745;28;20281;-82
2022/11/29 08:55:14;;;;;;;20.05;17.90;;;5.50;99.90;;;;;;4231125;28;20123;-82
2022/11/29 08:57:34;;;;;;;15.02;13.43;;;5.50;99.90;;;;;;4231649;28;20062;-82
2022/11/29 09:00:00;;;;;;;10.48;9.75;;;5.50;99.90;;;;;;4230316;28;20047;-82
2022/11/29 09:02:20;;;;;;;15.32;13.75;;;5.50;99.90;;;;;;4234370;28;20226;-82
2022/11/29 09:04:40;;;;;;;10.43;9.93;;;5.60;99.90;;;;;;4216334;28;20085;-82
2022/11/29 09:07:00;;;;;;;6.85;6.55;;;5.60;99.90;;;;;;4231749;28;20090;-82
2022/11/29 09:09:19;;;;;;;13.18;11.75;;;5.50;99.90;;;;;;4217831;28;20112;-82
2022/11/29 09:11:39;;;;;;;9.50;9.10;;;5.60;99.90;;;;;;4231365;28;20046;-82
2022/11/29 09:14:02;;;;;;;12.15;11.45;;;5.80;99.90;;;;;;4231143;28;20082;-82
2022/11/29 09:16:24;;;;;;;13.15;12.43;;;5.90;99.90;;;;;;4231636;28;20127;-82
2022/11/29 09:18:45;;;;;;;9.37;8.93;;;6.00;99.90;;;;;;4230447;28;20082;-82
2022/11/29 09:21:12;;;;;;;11.93;10.95;;;5.90;99.90;;;;;;4218777;28;20108;-82
2022/11/29 09:23:32;;;;;;;8.32;7.95;;;5.90;99.90;;;;;;4231823;28;20098;-82
2022/11/29 09:25:53;;;;;;;5.20;4.90;;;5.90;99.90;;;;;;4214188;28;20053;-82
2022/11/29 09:28:13;;;;;;;5.75;5.55;;;6.00;99.90;;;;;;4231131;28;20039;-82
2022/11/29 09:30:35;;;;;;;5.80;4.85;;;6.10;99.90;;;;;;4230444;28;20081;-82
2022/11/29 09:32:55;;;;;;;5.70;5.50;;;6.20;99.90;;;;;;4218376;28;20074;-82
2022/11/29 09:35:14;;;;;;;7.47;7.25;;;6.30;99.90;;;;;;4230900;28;20062;-82
2022/11/29 09:37:35;;;;;;;11.00;10.45;;;6.40;99.90;;;;;;4229017;28;20038;-82
2022/11/29 09:39:55;;;;;;;16.02;14.80;;;6.40;99.90;;;;;;4230702;28;20054;-82
2022/11/29 09:42:39;;;;;;;16.20;14.57;;;6.40;99.90;;;;;;4231904;28;20047;-82
2022/11/29 09:45:19;;;;;;;22.35;20.05;;;6.40;99.90;;;;;;4230884;28;20243;-82
2022/11/29 09:47:56;;;;;;;30.65;24.13;;;6.40;99.90;;;;;;4231578;28;20080;-82
2022/11/29 09:50:41;;;;;;;21.83;19.63;;;6.40;99.90;;;;;;4230247;28;20094;-82
2022/11/29 09:53:24;;;;;;;23.33;20.85;;;6.40;99.90;;;;;;4227555;28;20436;-82
2022/11/29 09:56:42;;;;;;;6.75;6.50;;;6.60;99.90;;;;;;4218236;28;20389;-82
2022/11/29 09:59:20;;;;;;;5.50;5.40;;;6.50;99.90;;;;;;4193538;28;20171;-82
2022/11/29 10:01:46;;;;;;;8.70;8.10;;;6.70;99.90;;;;;;4189296;28;20040;-82
2022/11/29 10:04:15;;;;;;;11.30;10.60;;;6.80;99.90;;;;;;4197859;28;20092;-82
2022/11/29 10:06:44;;;;;;;16.88;15.32;;;6.80;99.90;;;;;;4195802;28;20083;-82
2022/11/29 10:09:23;;;;;;;17.85;16.23;;;6.80;99.90;;;;;;4189793;28;20240;-82
2022/11/29 10:12:07;;;;;;;16.75;15.07;;;6.90;99.90;;;;;;4190097;28;20248;-82
2022/11/29 10:14:50;;;;;;;12.98;11.77;;;6.90;99.90;;;;;;4193679;28;20107;-82
2022/11/29 10:17:42;;;;;;;6.80;6.60;;;6.90;99.90;;;;;;4196733;28;20035;-82
2022/11/29 10:20:16;;;;;;;4.95;4.85;;;7.00;99.90;;;;;;4133777;28;20078;-82
2022/11/29 10:22:52;;;;;;;4.90;4.68;;;7.10;99.90;;;;;;4133388;28;20054;-82
2022/11/29 10:25:38;;;;;;;7.00;6.80;;;7.30;99.90;;;;;;4135023;28;20126;-82
2022/11/29 10:27:58;;;;;;;6.32;5.97;;;7.40;99.90;;;;;;4134821;28;20266;-82
2022/11/29 10:30:19;;;;;;;8.05;7.63;;;7.40;99.90;;;;;;4148882;28;20052;-82
2022/11/29 10:32:41;;;;;;;9.18;8.68;;;7.40;99.90;;;;;;4155168;28;20142;-82
2022/11/29 10:35:01;;;;;;;9.45;8.93;;;7.40;99.90;;;;;;4140379;28;20190;-82
2022/11/29 10:37:22;;;;;;;11.48;10.63;;;7.40;99.90;;;;;;4155137;28;20044;-82
2022/11/29 10:39:43;;;;;;;7.68;7.22;;;7.40;99.90;;;;;;4154896;28;20060;-82
2022/11/29 10:42:47;;;;;;;7.13;6.82;;;7.40;99.90;;;;;;4141125;28;20446;-82
2022/11/29 10:44:44;;;;;;;6.00;5.80;;;7.50;99.90;;;;;;4154758;28;20045;-82
2022/11/29 10:47:04;;;;;;;4.40;4.30;;;7.50;99.90;;;;;;4154922;28;20088;-82
2022/11/29 10:49:34;;;;;;;3.92;3.83;;;7.60;99.90;;;;;;4154902;28;20041;-82
2022/11/29 10:51:54;;;;;;;2.80;2.80;;;7.60;99.90;;;;;;4154829;28;20300;-82
2022/11/29 10:54:20;;;;;;;3.17;3.17;;;7.60;99.90;;;;;;4154772;28;20244;-82
2022/11/29 10:56:41;;;;;;;4.00;3.95;;;7.60;99.90;;;;;;4217720;28;20050;-82
2022/11/29 10:59:06;;;;;;;3.42;3.42;;;7.70;99.90;;;;;;4214340;28;20039;-82
2022/11/29 11:01:28;;;;;;;3.05;3.05;;;7.70;99.90;;;;;;4230765;28;20046;-82
2022/11/29 11:03:56;;;;;;;5.18;4.93;;;7.80;99.90;;;;;;4230568;28;20116;-82
2022/11/29 11:06:21;;;;;;;4.18;4.07;;;7.80;99.90;;;;;;4231577;28;20070;-82
2022/11/29 11:08:49;;;;;;;7.03;6.82;;;7.90;99.90;;;;;;4229242;28;20054;-82
2022/11/29 11:11:11;;;;;;;5.68;5.47;;;7.90;99.90;;;;;;4232656;28;20035;-82
2022/11/29 11:13:31;;;;;;;7.53;7.13;;;7.90;99.90;;;;;;4230229;28;20074;-82
2022/11/29 11:15:58;;;;;;;3.55;3.55;;;7.90;99.90;;;;;;4229013;28;20054;-82
2022/11/29 11:18:24;;;;;;;6.97;6.65;;;7.80;99.90;;;;;;4212570;28;20082;-82
2022/11/29 11:20:58;;;;;;;5.97;5.80;;;7.90;99.90;;;;;;4229718;28;20038;-82
2022/11/29 11:23:25;;;;;;;7.78;7.35;;;7.90;99.90;;;;;;4231024;28;20059;-82
2022/11/29 11:25:48;;;;;;;6.97;6.50;;;7.90;99.90;;;;;;4230868;28;20080;-82
2022/11/29 11:28:22;;;;;;;4.55;4.45;;;7.90;99.90;;;;;;4232606;28;20341;-82
2022/11/29 11:30:53;;;;;;;4.70;4.53;;;7.80;99.90;;;;;;4233823;28;20165;-82
2022/11/29 11:33:24;;;;;;;21.27;16.60;;;7.90;99.90;;;;;;4233626;28;20050;-82
2022/11/29 11:36:00;;;;;;;3.88;3.88;;;7.80;99.90;;;;;;4217358;28;20043;-82
2022/11/29 11:38:20;;;;;;;3.55;3.53;;;7.80;99.90;;;;;;4231602;28;20062;-82
2022/11/29 11:40:40;;;;;;;10.90;10.10;;;7.80;99.90;;;;;;4234741;28;20292;-82
2022/11/29 11:43:02;;;;;;;5.22;5.03;;;7.80;99.90;;;;;;4234305;28;20370;-82
2022/11/29 11:45:34;;;;;;;5.32;4.95;;;7.80;99.90;;;;;;4233354;28;20351;-82
2022/11/29 11:47:57;;;;;;;6.53;6.32;;;7.80;99.90;;;;;;4229985;28;20046;-82
2022/11/29 11:50:26;;;;;;;8.60;8.23;;;7.70;99.90;;;;;;4232175;28;20058;-82
2022/11/29 11:52:53;;;;;;;10.23;9.68;;;7.70;99.90;;;;;;4216194;28;20053;-82
2022/11/29 11:55:34;;;;;;;4.95;4.85;;;7.70;99.90;;;;;;4215492;28;20255;-81
2022/11/29 11:58:13;;;;;;;5.13;5.03;;;7.70;99.90;;;;;;4228280;28;20054;-82
2022/11/29 12:00:52;;;;;;;10.68;9.88;;;7.80;99.90;;;;;;4233319;28;20050;-82
2022/11/29 12:03:41;;;;;;;4.28;4.20;;;7.80;99.90;;;;;;4232429;28;20059;-82
2022/11/29 12:06:27;;;;;;;5.47;5.38;;;7.70;99.90;;;;;;4230421;28;20047;-82
2022/11/29 12:08:48;;;;;;;5.38;5.28;;;7.70;99.90;;;;;;4232109;28;20059;-82
2022/11/29 12:11:13;;;;;;;3.53;3.42;;;7.70;99.90;;;;;;4232993;28;20047;-82
2022/11/29 12:13:38;;;;;;;4.75;4.65;;;7.70;99.90;;;;;;4228269;28;20117;-82
2022/11/29 12:16:06;;;;;;;4.90;4.70;;;7.70;99.90;;;;;;4219668;28;20059;-82
2022/11/29 12:18:43;;;;;;;4.93;4.72;;;7.80;99.90;;;;;;4233350;28;20418;-82
2022/11/29 12:21:13;;;;;;;6.80;6.50;;;7.80;99.90;;;;;;4230278;28;20042;-82
2022/11/29 12:23:51;;;;;;;7.50;6.88;;;7.80;99.90;;;;;;4219357;28;20051;-82
2022/11/29 12:26:30;;;;;;;7.32;7.05;;;7.70;99.90;;;;;;4217419;28;20087;-82
2022/11/29 12:29:15;;;;;;;14.70;13.55;;;7.80;99.90;;;;;;4220370;28;20082;-82
2022/11/29 12:31:53;;;;;;;12.27;11.38;;;7.80;99.90;;;;;;4230062;28;20100;-82
2022/11/29 12:34:13;;;;;;;10.63;10.07;;;7.80;99.90;;;;;;4231784;28;20047;-82
2022/11/29 12:36:54;;;;;;;22.63;19.80;;;7.80;99.90;;;;;;4232225;28;20302;-82
2022/11/29 12:39:34;;;;;;;8.32;7.82;;;7.90;99.90;;;;;;4218682;28;20088;-82
2022/11/29 12:42:19;;;;;;;9.15;8.70;;;7.90;99.90;;;;;;4193251;28;20074;-82
2022/11/29 12:44:47;;;;;;;6.20;6.10;;;7.90;99.90;;;;;;4229013;28;20093;-82
2022/11/29 12:47:29;;;;;;;3.78;3.70;;;7.90;99.90;;;;;;4216065;28;20070;-82
2022/11/29 12:50:03;;;;;;;3.95;3.95;;;7.90;99.90;;;;;;4232167;28;20289;-82
2022/11/29 12:52:50;;;;;;;5.65;5.45;;;7.80;99.90;;;;;;4229056;28;20047;-82
2022/11/29 12:55:22;;;;;;;4.20;4.20;;;7.90;99.90;;;;;;4233001;28;20034;-82
2022/11/29 12:57:57;;;;;;;5.80;5.70;;;7.90;99.90;;;;;;4231316;28;20051;-82
2022/11/29 13:00:19;;;;;;;4.93;4.82;;;7.90;99.90;;;;;;4231282;28;20263;-82
2022/11/29 13:02:42;;;;;;;4.97;4.87;;;8.00;99.90;;;;;;4229583;28;20038;-82
2022/11/29 13:05:08;;;;;;;4.90;4.80;;;8.00;99.90;;;;;;4231173;28;20062;-82
2022/11/29 13:07:43;;;;;;;3.65;3.65;;;8.00;99.90;;;;;;4216266;28;20102;-82
2022/11/29 13:10:06;;;;;;;3.80;3.80;;;8.00;99.90;;;;;;4215982;28;20091;-82